Latham, Illinois
Current Conditions -  °F | °C
As of 10:15 PM on Sunday 23 Nov 2014 (Local Time) from KAAA Reporting Station
Drizzle Drizzle  
Wind Chill: 51°   Ceiling: 200
Heat Index: 51°   Visibility: 3mi
Dew Point: 50°   Wind: 5mph
Humidity: 97%   Direction: 210°SSW
Pressure: 29.18"   Gusts: NA
Location:  39.97°N, 89.16°W
Report Text: KAAA 240415Z AUTO 21004KT 3SM DZ OVC002 11/10 A2918 RMK AO2 T01070102
Loading
Personal Weather Stations






























Interactive Weather Map New forecast layout! Learn more

10-Day Weather Forecast

Advertisements
Track Severe Weather on mobile